Time;durP1;ratioP1;P1;durP2;ratioP2;P2;SDS_P1;SDS_P2;PMS_P1;PMS_P2;Temp;Humidity;BMP_temperature;BMP_pressure;BME280_temperature;BME280_humidity;BME280_pressure;Samples;Min_cycle;Max_cycle;Signal;HPM_P1;HPM_P2
2022/10/06 00:00:06;;;;;;;9.60;6.93;;;;;;;6.83;100.00;97033.03;6127745;23;20411;-77
2022/10/06 00:02:34;;;;;;;16.47;7.93;;;;;;;6.59;100.00;96990.28;6127670;23;20420;-77
2022/10/06 00:05:01;;;;;;;12.03;10.00;;;;;;;6.38;100.00;96964.28;6153465;23;20388;-77
2022/10/06 00:07:27;;;;;;;14.70;9.00;;;;;;;6.62;100.00;97003.63;6127170;23;20402;-77
2022/10/06 00:09:54;;;;;;;9.63;8.60;;;;;;;6.49;100.00;96993.81;6127607;23;20478;-77
2022/10/06 00:12:21;;;;;;;9.17;8.00;;;;;;;6.64;100.00;96998.88;6127646;23;20423;-77
2022/10/06 00:14:47;;;;;;;9.27;8.37;;;;;;;6.45;100.00;96971.81;6103092;23;20502;-77
2022/10/06 00:17:14;;;;;;;8.53;7.83;;;;;;;6.87;100.00;97044.53;6127630;23;20385;-77
2022/10/06 00:19:40;;;;;;;8.30;6.10;;;;;;;6.52;100.00;97015.03;6153514;23;20788;-76
2022/10/06 00:22:07;;;;;;;8.40;5.70;;;;;;;6.34;100.00;96988.75;6127508;23;20463;-77
2022/10/06 00:24:34;;;;;;;6.23;5.20;;;;;;;6.64;100.00;97040.91;6127143;23;20455;-77
2022/10/06 00:27:00;;;;;;;11.10;5.80;;;;;;;6.61;100.00;97028.34;6127107;23;20404;-77
2022/10/06 00:29:27;;;;;;;8.03;6.00;;;;;;;6.52;100.00;96993.25;6127307;23;20825;-76
2022/10/06 00:31:54;;;;;;;5.90;5.40;;;;;;;6.85;100.00;97054.56;6153755;23;20487;-76
2022/10/06 00:34:20;;;;;;;7.40;6.20;;;;;;;6.80;100.00;97058.03;6128034;23;20704;-77
2022/10/06 00:36:47;;;;;;;7.53;6.83;;;;;;;6.82;100.00;97052.50;6103078;23;20434;-76
2022/10/06 00:39:14;;;;;;;6.57;5.97;;;;;;;6.45;100.00;97004.13;6102734;23;20423;-77
2022/10/06 00:41:41;;;;;;;5.57;5.17;;;;;;;6.34;100.00;97052.56;6127311;23;20407;-78
2022/10/06 00:44:07;;;;;;;7.80;6.43;;;;;;;6.24;100.00;97052.69;6126917;23;20428;-77
2022/10/06 00:46:47;;;;;;;9.20;5.73;;;;;;;6.40;100.00;97050.66;6127435;23;20728;-77
2022/10/06 00:49:18;;;;;;;11.93;5.67;;;;;;;6.48;100.00;97042.94;6126976;23;20454;-77
2022/10/06 00:51:54;;;;;;;5.10;4.70;;;;;;;6.51;100.00;97041.59;6127372;23;20407;-76
2022/10/06 00:54:21;;;;;;;7.00;5.17;;;;;;;6.53;100.00;97044.72;6153191;23;20368;-76
2022/10/06 00:56:49;;;;;;;5.30;4.80;;;;;;;6.45;100.00;97061.91;6126942;23;20419;-77
2022/10/06 00:59:17;;;;;;;9.23;4.90;;;;;;;6.38;100.00;97037.81;6103115;23;20435;-77
2022/10/06 01:01:55;;;;;;;5.00;4.50;;;;;;;6.46;100.00;97033.78;6127050;23;20401;-76
2022/10/06 01:04:23;;;;;;;11.67;5.70;;;;;;;6.63;100.00;97063.00;6102900;23;20428;-77
2022/10/06 01:06:53;;;;;;;7.73;4.67;;;;;;;6.48;100.00;97050.03;6127108;23;20427;-77
2022/10/06 01:09:21;;;;;;;6.10;4.93;;;;;;;6.32;100.00;97054.69;6127122;23;20523;-76
2022/10/06 01:11:51;;;;;;;12.70;5.80;;;;;;;6.41;100.00;97060.91;6102810;23;20404;-76
2022/10/06 01:14:19;;;;;;;14.40;6.40;;;;;;;6.65;100.00;97066.09;6126985;23;20712;-76
2022/10/06 01:16:52;;;;;;;6.37;5.70;;;;;;;6.53;100.00;97071.78;6153354;23;20526;-77
2022/10/06 01:19:54;;;;;;;7.93;5.77;;;;;;;6.46;100.00;97067.94;6102593;23;20459;-77
2022/10/06 01:22:49;;;;;;;6.37;5.77;;;;;;;6.44;100.00;97067.44;6099376;23;20493;-76
2022/10/06 01:25:17;;;;;;;6.57;5.73;;;;;;;5.93;100.00;97031.22;6103076;23;20434;-77
2022/10/06 01:27:52;;;;;;;5.30;4.90;;;;;;;5.93;100.00;97034.63;6126862;23;20737;-77
2022/10/06 01:30:51;;;;;;;5.30;4.90;;;;;;;6.20;100.00;97073.47;6126936;23;20395;-76
2022/10/06 01:33:20;;;;;;;9.03;5.60;;;;;;;6.22;100.00;97066.09;6125545;23;20406;-77
2022/10/06 01:35:52;;;;;;;7.53;5.70;;;;;;;6.15;100.00;97063.03;6126897;23;20403;-76
2022/10/06 01:38:20;;;;;;;7.63;6.60;;;;;;;6.25;100.00;97077.88;6126732;23;20424;-77
2022/10/06 01:40:52;;;;;;;8.00;5.30;;;;;;;6.12;100.00;97053.06;6103433;23;20420;-76
2022/10/06 01:43:19;;;;;;;4.67;4.27;;;;;;;5.93;100.00;97036.47;6126896;23;20424;-76
2022/10/06 01:45:55;;;;;;;5.53;4.80;;;;;;;5.93;100.00;97081.88;6126879;23;20404;-77
2022/10/06 01:48:22;;;;;;;6.13;4.80;;;;;;;5.69;100.00;97052.16;6102631;23;20474;-77
2022/10/06 01:50:50;;;;;;;6.67;4.83;;;;;;;5.88;100.00;97073.25;6126994;23;20912;-76
2022/10/06 01:53:17;;;;;;;5.93;5.33;;;;;;;5.93;100.00;97094.22;6127061;23;20495;-77
2022/10/06 01:55:44;;;;;;;5.50;4.60;;;;;;;5.87;100.00;97106.56;6103818;23;20391;-77
2022/10/06 01:58:14;;;;;;;5.80;5.00;;;;;;;5.60;100.00;97059.06;6128571;23;20427;-76
2022/10/06 02:00:41;;;;;;;7.83;4.70;;;;;;;5.69;100.00;97075.78;6128508;23;20411;-77
2022/10/06 02:03:08;;;;;;;6.07;4.83;;;;;;;5.79;100.00;97080.16;6128502;23;20433;-76
2022/10/06 02:05:35;;;;;;;6.20;3.60;;;;;;;5.81;100.00;97094.56;6154666;23;20475;-77
2022/10/06 02:08:02;;;;;;;5.03;4.23;;;;;;;5.71;100.00;97080.75;6104435;23;20423;-77
2022/10/06 02:10:32;;;;;;;7.00;4.70;;;;;;;5.50;100.00;97072.28;6105274;23;20396;-77
2022/10/06 02:13:01;;;;;;;5.03;4.43;;;;;;;5.54;100.00;97068.03;6128499;23;20895;-77
2022/10/06 02:15:31;;;;;;;5.90;4.57;;;;;;;5.24;100.00;97019.25;6104507;23;20442;-76
2022/10/06 02:17:58;;;;;;;4.90;4.50;;;;;;;5.83;100.00;97102.16;6128274;23;20431;-77
2022/10/06 02:20:25;;;;;;;5.03;4.63;;;;;;;5.69;100.00;97075.00;6128621;23;20436;-77
2022/10/06 02:22:52;;;;;;;4.60;4.20;;;;;;;5.89;100.00;97098.44;6128450;23;20748;-77
2022/10/06 02:25:19;;;;;;;5.20;4.80;;;;;;;5.21;100.00;96997.00;6155009;23;20383;-76
2022/10/06 02:27:47;;;;;;;8.80;5.33;;;;;;;5.91;100.00;97112.09;6128778;23;20435;-76
2022/10/06 02:30:15;;;;;;;6.60;4.93;;;;;;;5.31;100.00;97040.66;6128788;23;20477;-76
2022/10/06 02:32:43;;;;;;;7.23;4.57;;;;;;;5.59;100.00;97086.34;6104640;23;20408;-76
2022/10/06 02:35:13;;;;;;;8.00;4.97;;;;;;;5.78;100.00;97113.47;6128503;23;20400;-77
2022/10/06 02:37:41;;;;;;;9.50;5.20;;;;;;;5.68;100.00;97103.06;6128711;23;20456;-77
2022/10/06 02:40:11;;;;;;;7.40;4.77;;;;;;;5.51;100.00;97090.34;6129347;23;20426;-77
2022/10/06 02:42:38;;;;;;;5.90;5.30;;;;;;;5.55;100.00;97086.13;6128718;23;20490;-76
2022/10/06 02:45:06;;;;;;;6.07;4.50;;;;;;;5.85;100.00;97119.19;6104432;23;20443;-76
2022/10/06 02:47:34;;;;;;;8.67;6.17;;;;;;;5.81;100.00;97122.63;6128878;23;20399;-76
2022/10/06 02:50:04;;;;;;;7.80;4.60;;;;;;;5.78;100.00;97110.84;6128501;23;20404;-76
2022/10/06 02:52:37;;;;;;;4.87;4.37;;;;;;;5.89;100.00;97122.06;6129380;23;20407;-76
2022/10/06 02:55:05;;;;;;;4.90;4.50;;;;;;;5.84;100.00;97129.94;6129252;23;20858;-77
2022/10/06 02:57:32;;;;;;;11.53;6.50;;;;;;;5.38;100.00;97079.69;6129813;23;20407;-76
2022/10/06 02:59:59;;;;;;;6.67;5.27;;;;;;;5.73;100.00;97134.50;6105428;23;20512;-77
2022/10/06 03:02:29;;;;;;;5.87;5.30;;;;;;;5.41;100.00;97102.75;6130430;23;20496;-76
2022/10/06 03:04:56;;;;;;;6.50;5.87;;;;;;;5.42;100.00;97099.06;6129567;23;20486;-76
2022/10/06 03:07:23;;;;;;;8.13;5.40;;;;;;;5.62;100.00;97115.44;6131188;23;20402;-76
2022/10/06 03:09:50;;;;;;;6.03;5.47;;;;;;;5.44;100.00;97091.72;6131663;23;20400;-76
2022/10/06 03:12:16;;;;;;;5.70;5.30;;;;;;;5.64;100.00;97128.28;6132075;23;20404;-76
2022/10/06 03:14:44;;;;;;;5.97;5.47;;;;;;;5.52;100.00;97096.38;6108073;23;20784;-77
2022/10/06 03:17:10;;;;;;;6.30;5.57;;;;;;;5.54;100.00;97130.97;6108223;23;20483;-77
2022/10/06 03:19:44;;;;;;;5.20;4.80;;;;;;;5.52;100.00;97140.97;6131930;23;20432;-77
2022/10/06 03:22:10;;;;;;;5.30;4.90;;;;;;;5.42;100.00;97125.28;6131660;23;20400;-76
2022/10/06 03:24:43;;;;;;;4.73;4.23;;;;;;;5.45;100.00;97120.28;6132046;23;20426;-76
2022/10/06 03:27:10;;;;;;;7.83;5.53;;;;;;;5.42;100.00;97120.81;6140545;23;20375;-77
2022/10/06 03:29:37;;;;;;;5.00;4.53;;;;;;;5.36;100.00;97115.91;6124996;23;20416;-77
2022/10/06 03:32:04;;;;;;;6.83;5.80;;;;;;;5.30;100.00;97108.06;6129896;23;20399;-77
2022/10/06 03:34:31;;;;;;;4.90;4.40;;;;;;;5.12;100.00;97092.19;6127924;23;20411;-77
2022/10/06 03:37:00;;;;;;;5.87;5.37;;;;;;;5.53;100.00;97156.44;6127774;23;20404;-76
2022/10/06 03:39:27;;;;;;;6.60;4.63;;;;;;;5.33;100.00;97141.59;6127783;23;20419;-77
2022/10/06 03:41:54;;;;;;;5.20;4.43;;;;;;;4.96;100.00;97131.59;6103621;23;20412;-76
2022/10/06 03:44:21;;;;;;;7.67;4.47;;;;;;;5.13;100.00;97159.28;6103886;23;20439;-77
2022/10/06 03:46:48;;;;;;;12.13;4.70;;;;;;;5.01;100.00;97159.59;6103638;23;20408;-77
2022/10/06 03:49:15;;;;;;;4.97;4.33;;;;;;;4.78;100.00;97116.47;6127677;23;20436;-77
2022/10/06 03:51:42;;;;;;;4.33;4.03;;;;;;;4.99;100.00;97143.38;6103508;23;20406;-77
2022/10/06 03:54:17;;;;;;;7.07;4.70;;;;;;;5.05;100.00;97150.94;6104958;23;20395;-77
2022/10/06 03:56:46;;;;;;;4.70;4.30;;;;;;;4.86;100.00;97147.34;6103693;23;20411;-77
2022/10/06 03:59:16;;;;;;;6.63;4.63;;;;;;;5.09;100.00;97193.13;6127413;23;20423;-76
2022/10/06 04:01:46;;;;;;;4.57;4.23;;;;;;;5.21;100.00;97192.81;6103608;23;20430;-76
2022/10/06 04:04:18;;;;;;;4.50;4.10;;;;;;;5.07;100.00;97161.13;6104288;23;20862;-76
2022/10/06 04:06:49;;;;;;;6.30;3.90;;;;;;;4.99;100.00;97166.94;6127565;23;20474;-77
2022/10/06 04:09:18;;;;;;;4.70;4.20;;;;;;;4.94;100.00;97146.00;6103537;23;20424;-76
2022/10/06 04:11:45;;;;;;;6.20;5.10;;;;;;;4.93;100.00;97160.16;6127361;23;20418;-76
2022/10/06 04:14:14;;;;;;;7.50;6.07;;;;;;;5.28;100.00;97209.00;6127367;23;20876;-76
2022/10/06 04:16:44;;;;;;;10.23;7.50;;;;;;;5.37;100.00;97211.88;6127473;23;20412;-76
2022/10/06 04:19:13;;;;;;;11.63;8.90;;;;;;;5.27;100.00;97220.56;6126885;23;20470;-77
2022/10/06 04:21:47;;;;;;;10.97;8.20;;;;;;;5.08;100.00;97190.78;6127388;23;20410;-77
2022/10/06 04:24:17;;;;;;;8.90;8.00;;;;;;;5.11;100.00;97219.06;6127133;23;20427;-76
2022/10/06 04:26:49;;;;;;;13.00;6.83;;;;;;;4.78;100.00;97187.19;6127266;23;20407;-77
2022/10/06 04:29:17;;;;;;;6.40;4.90;;;;;;;4.72;100.00;97211.84;6127016;23;20843;-76
2022/10/06 04:31:49;;;;;;;7.17;5.20;;;;;;;4.60;100.00;97193.03;6103553;23;20396;-77
2022/10/06 04:34:33;;;;;;;6.40;5.77;;;;;;;4.96;100.00;97235.63;6131341;23;20435;-77
2022/10/06 04:37:00;;;;;;;7.60;5.70;;;;;;;4.82;100.00;97206.59;6127028;23;20428;-76
2022/10/06 04:39:27;;;;;;;7.90;7.10;;;;;;;4.41;100.00;97137.84;6126985;23;20823;-76
2022/10/06 04:41:54;;;;;;;6.70;6.20;;;;;;;4.74;100.00;97181.72;6127221;23;20431;-76
2022/10/06 04:44:24;;;;;;;6.03;5.43;;;;;;;5.05;100.00;97234.78;6103523;23;20917;-78
2022/10/06 04:46:53;;;;;;;7.73;7.03;;;;;;;5.08;100.00;97196.81;6103686;23;20411;-76
2022/10/06 04:49:20;;;;;;;8.40;7.13;;;;;;;5.45;100.00;97238.28;6153803;23;20423;-76
2022/10/06 04:51:50;;;;;;;8.30;7.50;;;;;;;5.09;100.00;97182.63;6103979;23;20419;-78
2022/10/06 04:54:17;;;;;;;8.27;7.47;;;;;;;5.43;100.00;97244.88;6103110;23;20400;-77
2022/10/06 04:56:47;;;;;;;7.23;6.47;;;;;;;5.00;100.00;97187.66;6103282;23;20478;-77
2022/10/06 04:59:15;;;;;;;7.20;5.83;;;;;;;5.45;100.00;97248.78;6103203;23;20460;-77
2022/10/06 05:01:43;;;;;;;33.00;20.20;;;;;;;5.23;100.00;97214.28;6127061;23;20431;-77
2022/10/06 05:04:12;;;;;;;39.13;27.57;;;;;;;5.17;100.00;97217.97;6127032;23;20439;-77
2022/10/06 05:06:40;;;;;;;28.90;19.83;;;;;;;5.37;100.00;97259.06;6127231;23;20426;-77
2022/10/06 05:09:11;;;;;;;21.03;15.40;;;;;;;5.43;100.00;97252.72;6128725;23;20506;-77
2022/10/06 05:11:43;;;;;;;14.40;12.90;;;;;;;5.08;100.00;97223.00;6104082;23;20404;-78
2022/10/06 05:14:12;;;;;;;16.53;14.20;;;;;;;5.29;100.00;97237.59;6127325;23;20412;-77
2022/10/06 05:16:42;;;;;;;16.23;14.13;;;;;;;5.78;100.00;97246.50;6127080;23;20760;-77
2022/10/06 05:19:10;;;;;;;13.97;12.63;;;;;;;5.55;100.00;97233.00;6127040;23;20431;-77
2022/10/06 05:21:38;;;;;;;10.10;9.10;;;;;;;5.45;100.00;97259.28;6103276;23;20428;-77
2022/10/06 05:24:06;;;;;;;8.70;7.80;;;;;;;5.16;100.00;97243.41;6126842;23;20518;-78
2022/10/06 05:26:35;;;;;;;15.03;8.03;;;;;;;5.43;100.00;97276.34;6126899;23;20735;-78
2022/10/06 05:29:05;;;;;;;7.20;6.50;;;;;;;5.38;100.00;97260.63;6127862;23;20442;-77
2022/10/06 05:31:37;;;;;;;7.90;7.20;;;;;;;5.65;100.00;97282.00;6105329;23;20403;-77
2022/10/06 05:34:05;;;;;;;8.57;7.77;;;;;;;5.85;100.00;97287.13;6128921;23;20882;-77
2022/10/06 05:36:32;;;;;;;13.40;8.20;;;;;;;5.28;100.00;97238.63;6105047;23;20412;-78
2022/10/06 05:39:01;;;;;;;12.40;7.93;;;;;;;5.85;100.00;97308.13;6104817;23;20428;-77
2022/10/06 05:41:36;;;;;;;7.33;6.73;;;;;;;5.61;100.00;97254.75;6106266;23;20391;-77
2022/10/06 05:44:06;;;;;;;6.77;6.17;;;;;;;5.79;100.00;97319.72;6128914;23;20925;-77
2022/10/06 05:46:34;;;;;;;5.80;5.37;;;;;;;5.58;100.00;97289.38;6104976;23;20882;-77
2022/10/06 05:49:10;;;;;;;8.90;6.97;;;;;;;5.71;100.00;97320.25;6128628;23;20451;-77
2022/10/06 05:51:40;;;;;;;7.17;6.47;;;;;;;5.41;100.00;97281.84;6129016;23;20728;-77
2022/10/06 05:54:15;;;;;;;16.03;6.33;;;;;;;5.42;100.00;97295.75;6106295;23;20419;-77
2022/10/06 05:56:41;;;;;;;7.03;5.87;;;;;;;5.23;100.00;97264.09;6128402;23;20407;-78
2022/10/06 05:59:08;;;;;;;9.47;7.27;;;;;;;5.72;100.00;97324.47;6104458;23;20426;-77
2022/10/06 06:01:38;;;;;;;7.30;6.00;;;;;;;5.85;100.00;97330.97;6129931;23;20869;-77
2022/10/06 06:04:12;;;;;;;6.70;5.50;;;;;;;5.54;100.00;97273.41;6128651;23;20442;-78
2022/10/06 06:06:45;;;;;;;6.30;5.70;;;;;;;6.14;100.00;97333.72;6128984;23;20392;-77
2022/10/06 06:09:17;;;;;;;7.13;6.53;;;;;;;5.71;100.00;97270.41;6128652;23;20419;-78
2022/10/06 06:11:49;;;;;;;6.93;6.13;;;;;;;6.22;100.00;97341.03;6128687;23;20475;-77
2022/10/06 06:15:59;;;;;;;6.20;5.70;;;;;;;6.25;100.00;97340.47;6128767;23;20427;-77
2022/10/06 06:17:07;;;;;;;6.93;5.23;;;;;;;6.03;100.00;97306.75;6128785;23;20866;-77
2022/10/06 06:19:34;;;;;;;6.40;5.80;;;;;;;6.26;100.00;97354.38;6128779;23;20435;-77
2022/10/06 06:22:01;;;;;;;11.70;9.50;;;;;;;6.01;100.00;97306.25;6128927;23;20439;-78
2022/10/06 06:24:29;;;;;;;7.77;6.97;;;;;;;6.39;100.00;97366.91;6105105;23;20436;-78
2022/10/06 06:26:56;;;;;;;14.17;8.27;;;;;;;6.30;100.00;97352.81;6128986;23;20511;-77
2022/10/06 06:29:23;;;;;;;12.03;8.70;;;;;;;6.39;100.00;97353.78;6128907;23;20423;-77
2022/10/06 06:31:50;;;;;;;12.77;10.00;;;;;;;6.29;100.00;97331.00;6104412;23;20764;-78
2022/10/06 06:34:16;;;;;;;11.27;9.63;;;;;;;6.36;100.00;97341.19;6104495;23;20495;-77
2022/10/06 06:36:45;;;;;;;11.50;10.47;;;;;;;6.40;100.00;97336.94;6128371;23;20404;-77
2022/10/06 06:39:16;;;;;;;12.73;10.03;;;;;;;6.44;100.00;97333.53;6154645;23;20400;-77
2022/10/06 06:41:45;;;;;;;13.50;8.17;;;;;;;6.80;100.00;97385.78;6128176;23;20415;-77
2022/10/06 06:44:47;;;;;;;15.93;8.63;;;;;;;6.93;100.00;97390.41;6035595;23;20584;-77
2022/10/06 06:47:47;;;;;;;10.30;8.87;;;;;;;6.76;100.00;97356.66;6128176;23;20428;-77
2022/10/06 06:50:16;;;;;;;8.10;6.93;;;;;;;6.74;100.00;97353.50;6103842;23;20443;-78
2022/10/06 06:52:43;;;;;;;9.60;7.77;;;;;;;6.94;100.00;97370.16;6128303;23;20419;-78
2022/10/06 06:55:13;;;;;;;10.50;8.30;;;;;;;7.19;100.00;97413.84;6128310;23;20400;-78
2022/10/06 06:57:41;;;;;;;12.07;9.43;;;;;;;6.85;100.00;97367.34;6128202;23;20423;-77
2022/10/06 07:00:12;;;;;;;8.77;7.97;;;;;;;6.87;100.00;97359.19;6128107;23;20462;-78
2022/10/06 07:02:39;;;;;;;8.47;7.77;;;;;;;7.25;100.00;97405.66;6128191;23;20400;-78
2022/10/06 07:05:06;;;;;;;10.30;9.07;;;;;;;7.40;100.00;97418.66;6128310;23;20474;-78
2022/10/06 07:07:34;;;;;;;11.30;8.43;;;;;;;7.27;100.00;97398.25;6127994;23;20444;-78
2022/10/06 07:10:02;;;;;;;12.20;9.10;;;;;;;7.44;100.00;97412.84;6128270;23;20455;-78
2022/10/06 07:12:31;;;;;;;9.97;8.10;;;;;;;7.29;100.00;97385.63;6104294;23;20411;-78
2022/10/06 07:26:11;;;;;;;10.00;8.77;;;;;;;7.72;100.00;97427.78;6128105;23;20524;-78
2022/10/06 07:28:41;;;;;;;15.70;10.30;;;;;;;7.90;100.00;97442.09;6128246;23;20809;-77
2022/10/06 07:31:08;;;;;;;22.37;12.30;;;;;;;7.74;100.00;97411.72;6128018;23;20400;-77
2022/10/06 07:33:35;;;;;;;15.37;11.97;;;;;;;8.04;100.00;97450.09;6103489;23;20463;-78
2022/10/06 07:36:03;;;;;;;11.57;9.03;;;;;;;7.93;100.00;97423.09;6127811;23;20404;-77
2022/10/06 07:38:31;;;;;;;18.70;10.87;;;;;;;8.13;100.00;97443.13;6127694;23;20428;-78
2022/10/06 07:40:58;;;;;;;12.10;10.57;;;;;;;7.89;100.00;97406.31;6128055;23;20455;-78
2022/10/06 07:43:52;;;;;;;12.80;10.10;;;;;;;8.39;100.00;97459.41;6127786;23;20800;-78
2022/10/06 07:46:19;;;;;;;12.53;11.23;;;;;;;8.46;100.00;97454.59;6103383;23;20428;-78
2022/10/06 07:48:55;;;;;;;13.13;10.70;;;;;;;8.30;100.00;97417.88;6105518;23;20737;-78
2022/10/06 07:51:23;;;;;;;11.00;9.90;;;;;;;8.52;100.00;97416.56;6103494;23;20442;-78
2022/10/06 07:53:50;;;;;;;14.10;12.23;;;;;;;8.51;100.00;97401.81;6103564;23;20462;-77
2022/10/06 07:56:25;;;;;;;14.90;11.67;;;;;;;8.75;100.00;97442.06;6127891;23;20401;-78
2022/10/06 07:58:57;;;;;;;16.87;13.67;;;;;;;8.69;100.00;97443.22;6127553;23;20777;-78
2022/10/06 08:01:26;;;;;;;19.30;16.73;;;;;;;8.71;100.00;97427.09;6128106;23;20431;-77
2022/10/06 08:03:52;;;;;;;15.30;13.70;;;;;;;8.79;100.00;97448.31;6127620;23;20411;-78
2022/10/06 08:06:22;;;;;;;11.47;9.90;;;;;;;8.90;100.00;97470.06;6103446;23;20424;-78
2022/10/06 08:08:51;;;;;;;14.73;11.67;;;;;;;8.96;100.00;97489.25;6153840;23;20404;-78
2022/10/06 08:11:19;;;;;;;14.80;11.20;;;;;;;8.99;100.00;97492.09;6103442;23;20404;-78
2022/10/06 08:13:50;;;;;;;13.50;11.30;;;;;;;8.97;100.00;97474.97;6103613;23;20450;-78
2022/10/06 08:16:20;;;;;;;12.53;10.27;;;;;;;9.18;100.00;97481.50;6103200;23;20447;-78
2022/10/06 08:18:54;;;;;;;11.47;10.30;;;;;;;8.87;100.00;97447.69;6127373;23;20431;-78
2022/10/06 08:21:27;;;;;;;11.93;9.77;;;;;;;9.11;100.00;97479.22;6153615;23;20367;-78
2022/10/06 08:23:57;;;;;;;10.63;9.53;;;;;;;9.14;100.00;97456.75;6127439;23;21035;-77
2022/10/06 08:26:25;;;;;;;12.30;11.03;;;;;;;9.77;100.00;97511.69;6153424;23;20424;-78
2022/10/06 08:28:56;;;;;;;12.53;11.23;;;;;;;9.87;100.00;97516.75;6127837;23;20487;-78
2022/10/06 08:31:23;;;;;;;11.03;9.60;;;;;;;9.92;100.00;97510.63;6127655;23;20407;-77
2022/10/06 08:33:54;;;;;;;11.33;8.13;;;;;;;10.40;100.00;97521.59;6103294;23;20474;-78
2022/10/06 08:36:24;;;;;;;14.37;11.13;;;;;;;9.97;100.00;97436.53;6127405;23;20410;-78
2022/10/06 08:38:57;;;;;;;12.30;11.00;;;;;;;10.43;100.00;97464.72;6153450;23;20801;-78
2022/10/06 08:41:32;;;;;;;9.30;8.40;;;;;;;11.04;100.00;97524.22;6127382;23;20503;-78
2022/10/06 08:44:05;;;;;;;9.73;8.77;;;;;;;11.10;100.00;97523.06;6153558;23;20371;-78
2022/10/06 08:46:54;;;;;;;10.37;8.70;;;;;;;11.19;100.00;97513.28;6127310;23;20431;-78
2022/10/06 08:49:23;;;;;;;10.27;8.97;;;;;;;11.43;100.00;97520.94;6153799;23;20407;-78
2022/10/06 08:52:14;;;;;;;12.73;8.73;;;;;;;11.24;100.00;97505.25;6154547;23;20380;-78
2022/10/06 08:55:05;;;;;;;6.60;6.00;;;;;;;11.78;100.00;97551.09;6128667;23;20727;-78
2022/10/06 08:58:09;;;;;;;7.40;5.40;;;;;;;12.02;100.00;97567.47;6153592;23;20371;-78
2022/10/06 09:00:36;;;;;;;9.50;4.80;;;;;;;12.16;100.00;97572.69;6127813;23;20392;-77
2022/10/06 09:03:04;;;;;;;4.63;4.03;;;;;;;12.19;100.00;97563.31;6127317;23;20418;-77
2022/10/06 09:05:33;;;;;;;14.33;5.93;;;;;;;12.26;100.00;97569.72;6104800;23;20438;-77
2022/10/06 09:08:42;;;;;;;5.60;4.30;;;;;;;12.34;100.00;97581.47;6129191;23;20813;-77
2022/10/06 09:11:30;;;;;;;5.43;2.90;;;;;;;12.39;100.00;97591.94;6094108;23;20400;-77
2022/10/06 09:14:12;;;;;;;2.83;2.63;;;;;;;12.25;100.00;97568.19;6155742;23;20379;-77
2022/10/06 09:16:43;;;;;;;3.10;2.10;;;;;;;12.09;100.00;97551.09;6105239;23;20843;-77
2022/10/06 09:19:14;;;;;;;2.47;2.20;;;;;;;12.53;100.00;97613.84;6129234;23;20432;-77
2022/10/06 09:21:46;;;;;;;3.37;2.40;;;;;;;12.66;100.00;97599.69;6155435;23;20368;-77
2022/10/06 09:24:16;;;;;;;3.33;2.10;;;;;;;12.51;100.00;97562.97;6105036;23;20716;-77
2022/10/06 09:26:45;;;;;;;2.47;1.87;;;;;;;12.77;100.00;97596.75;6129086;23;20478;-77
2022/10/06 09:29:13;;;;;;;5.33;1.77;;;;;;;12.78;100.00;97612.38;6129516;23;20490;-78
2022/10/06 09:31:49;;;;;;;6.10;1.90;;;;;;;12.71;100.00;97606.75;6129509;23;20851;-77
2022/10/06 09:34:20;;;;;;;3.00;1.70;;;;;;;12.48;100.00;97581.38;6155076;23;20446;-77
2022/10/06 09:37:11;;;;;;;5.33;2.20;;;;;;;12.92;100.00;97628.94;6128879;23;20434;-78
2022/10/06 09:39:40;;;;;;;3.07;2.00;;;;;;;12.50;100.00;97577.31;6128856;23;20455;-77
2022/10/06 09:42:20;;;;;;;1.67;1.50;;;;;;;12.71;100.00;97606.75;6129320;23;20384;-78
2022/10/06 09:44:50;;;;;;;1.77;1.50;;;;;;;12.92;100.00;97630.81;6128740;23;20435;-78
2022/10/06 09:47:32;;;;;;;4.33;1.70;;;;;;;13.03;100.00;97638.19;6128985;23;20404;-78
2022/10/06 09:50:16;;;;;;;3.20;1.30;;;;;;;12.94;100.00;97602.09;6128966;23;20391;-77
2022/10/06 09:53:04;;;;;;;4.13;1.60;;;;;;;13.21;100.00;97627.63;6104947;23;20402;-78
2022/10/06 09:55:44;;;;;;;4.60;1.80;;;;;;;12.96;100.00;97592.75;6128734;23;20391;-77
2022/10/06 09:58:33;;;;;;;5.30;1.60;;;;;;;13.25;100.00;97632.03;6128700;23;20513;-78
2022/10/06 10:01:02;;;;;;;2.40;1.47;;;;;;;13.13;100.00;97610.56;6128958;23;20392;-78
2022/10/06 10:03:51;;;;;;;2.87;1.57;;;;;;;13.38;100.00;97640.16;6129151;23;20411;-78
2022/10/06 10:06:39;;;;;;;2.30;1.27;;;;;;;13.25;100.00;97618.75;6128455;23;20456;-78
2022/10/06 10:09:12;;;;;;;2.50;1.20;;;;;;;13.58;100.00;97647.50;6104253;23;20940;-78
2022/10/06 10:14:36;;;;;;;1.23;1.00;;;;;;;13.49;100.00;97612.97;6130070;23;20483;-78
2022/10/06 10:17:14;;;;;;;2.07;1.87;;;;;;;13.66;100.00;97611.41;6128023;23;20388;-79
2022/10/06 10:19:43;;;;;;;3.27;1.03;;;;;;;13.54;100.00;97593.44;6128350;23;20471;-79
2022/10/06 10:22:21;;;;;;;3.40;1.40;;;;;;;13.77;100.00;97628.59;6128720;23;20737;-79
2022/10/06 10:25:04;;;;;;;3.70;1.90;;;;;;;14.16;100.00;97654.19;6129629;23;20387;-78
2022/10/06 10:27:57;;;;;;;6.33;2.07;;;;;;;14.37;100.00;97655.06;6128494;23;20851;-78
2022/10/06 10:30:25;;;;;;;2.67;1.60;;;;;;;14.20;100.00;97631.97;6104954;23;20396;-78
2022/10/06 10:33:03;;;;;;;1.73;1.60;;;;;;;14.49;100.00;97657.88;6155086;23;20455;-79
2022/10/06 10:35:36;;;;;;;2.90;1.40;;;;;;;14.41;100.00;97617.94;6154674;23;20363;-79
2022/10/06 10:38:08;;;;;;;2.90;2.07;;;;;;;14.45;100.00;97632.22;6104060;23;20939;-78
2022/10/06 10:40:46;;;;;;;1.60;1.50;;;;;;;14.15;100.00;97634.75;6155000;23;20838;-78
2022/10/06 10:43:32;;;;;;;4.10;1.60;;;;;;;14.53;100.00;97665.22;6128892;23;20463;-79
2022/10/06 10:46:09;;;;;;;3.50;1.70;;;;;;;14.49;100.00;97668.53;6155010;23;20416;-79
2022/10/06 10:48:45;;;;;;;2.60;1.77;;;;;;;14.38;100.00;97645.19;6129515;23;20411;-79
2022/10/06 10:51:21;;;;;;;1.60;1.27;;;;;;;14.77;100.00;97666.22;6155403;23;20470;-79
2022/10/06 10:53:53;;;;;;;6.37;1.73;;;;;;;14.82;100.00;97678.56;6104769;23;20487;-79
2022/10/06 10:56:23;;;;;;;4.40;1.70;;;;;;;15.15;100.00;97653.97;6129175;23;20463;-79
2022/10/06 10:59:22;;;;;;;1.80;1.33;;;;;;;14.85;100.00;97653.22;6129914;23;20491;-79
2022/10/06 11:02:00;;;;;;;2.20;1.30;;;;;;;14.83;100.00;97653.53;6129850;23;20457;-79
2022/10/06 11:04:27;;;;;;;4.83;1.83;;;;;;;14.72;100.00;97649.66;6104651;23;20869;-79
2022/10/06 11:07:31;;;;;;;5.27;1.50;;;;;;;14.85;100.00;97682.50;6128617;23;21278;-79
2022/10/06 11:10:16;;;;;;;1.90;1.77;;;;;;;14.61;100.00;97677.72;6104916;23;20407;-79
2022/10/06 11:13:21;;;;;;;3.00;1.77;;;;;;;14.34;100.00;97681.53;6155586;23;20463;-78
2022/10/06 11:16:07;;;;;;;2.53;1.43;;;;;;;14.50;100.00;97690.59;6017204;23;20409;-78
2022/10/06 11:19:05;;;;;;;2.23;1.47;;;;;;;14.43;100.00;97684.97;6124767;23;20464;-79
2022/10/06 11:21:59;;;;;;;3.37;1.33;;;;;;;14.07;100.00;97616.97;6129836;23;20411;-79
2022/10/06 11:24:53;;;;;;;4.20;1.10;;;;;;;13.97;100.00;97677.69;6129167;23;20400;-79
2022/10/06 11:27:28;;;;;;;4.13;1.80;;;;;;;14.29;100.00;97687.81;6155023;23;20735;-79
2022/10/06 11:30:14;;;;;;;4.10;1.43;;;;;;;14.53;100.00;97689.19;6128578;23;20402;-78
2022/10/06 11:33:08;;;;;;;2.33;1.13;;;;;;;15.06;100.00;97686.75;6155067;23;20368;-79
2022/10/06 11:35:38;;;;;;;2.03;1.87;;;;;;;15.45;100.00;97682.16;6129099;23;20391;-79
2022/10/06 11:38:14;;;;;;;5.27;1.33;;;;;;;15.91;100.00;97691.09;6129057;23;20402;-79
2022/10/06 11:40:50;;;;;;;2.13;1.53;;;;;;;16.19;100.00;97684.09;6155996;23;20684;-79
2022/10/06 11:43:39;;;;;;;1.50;1.40;;;;;;;16.12;100.00;97683.84;6130770;23;20427;-79
2022/10/06 11:46:32;;;;;;;2.90;1.20;;;;;;;15.75;100.00;97629.56;6129784;23;20415;-79
2022/10/06 11:49:28;;;;;;;2.27;1.30;;;;;;;16.42;100.00;97683.69;6155061;23;20795;-79
2022/10/06 11:52:10;;;;;;;2.10;1.30;;;;;;;16.67;100.00;97688.00;6129716;23;20438;-79
2022/10/06 11:54:54;;;;;;;2.20;1.30;;;;;;;16.27;100.00;97650.41;6104633;23;20807;-79
2022/10/06 11:57:21;;;;;;;2.10;1.20;;;;;;;16.90;100.00;97682.25;6105361;23;20466;-80
2022/10/06 12:00:16;;;;;;;3.50;1.10;;;;;;;17.28;99.51;97676.56;6130763;23;20410;-80
2022/10/06 12:02:45;;;;;;;2.40;1.40;;;;;;;17.39;96.84;97680.31;6129530;23;20408;-79
2022/10/06 12:05:16;;;;;;;3.37;1.23;;;;;;;17.41;95.74;97678.09;6130424;23;20392;-80
2022/10/06 12:08:11;;;;;;;3.90;1.60;;;;;;;17.42;92.45;97655.59;6129799;23;20416;-79